sensor_id;sensor_type;location;lat;lon;timestamp;temperature;humidity
13198;DHT22;6664;52.514;13.440;2023-03-01T00:02:24;-1.90;34.40
13198;DHT22;6664;52.514;13.440;2023-03-01T00:05:10;-1.80;35.30
13198;DHT22;6664;52.514;13.440;2023-03-01T00:07:55;-1.80;35.60
13198;DHT22;6664;52.514;13.440;2023-03-01T00:10:50;-1.80;35.20
13198;DHT22;6664;52.514;13.440;2023-03-01T00:13:49;-1.80;34.90
13198;DHT22;6664;52.514;13.440;2023-03-01T00:16:38;-2.00;35.20
13198;DHT22;6664;52.514;13.440;2023-03-01T00:19:24;-2.00;35.70
13198;DHT22;6664;52.514;13.440;2023-03-01T00:22:10;-2.10;36.10
13198;DHT22;6664;52.514;13.440;2023-03-01T00:24:55;-2.10;36.50
13198;DHT22;6664;52.514;13.440;2023-03-01T00:27:41;-2.00;36.80
13198;DHT22;6664;52.514;13.440;2023-03-01T00:30:29;-2.00;36.80
13198;DHT22;6664;52.514;13.440;2023-03-01T00:33:16;-1.80;36.40
13198;DHT22;6664;52.514;13.440;2023-03-01T00:36:03;-1.60;35.10
13198;DHT22;6664;52.514;13.440;2023-03-01T00:38:49;-1.50;33.80
13198;DHT22;6664;52.514;13.440;2023-03-01T00:41:37;-1.80;33.50
13198;DHT22;6664;52.514;13.440;2023-03-01T00:44:24;-2.00;34.60
13198;DHT22;6664;52.514;13.440;2023-03-01T00:47:09;-1.90;35.90
13198;DHT22;6664;52.514;13.440;2023-03-01T00:49:55;-1.90;36.00
13198;DHT22;6664;52.514;13.440;2023-03-01T00:52:44;-1.90;36.20
13198;DHT22;6664;52.514;13.440;2023-03-01T00:55:30;-2.00;35.70
13198;DHT22;6664;52.514;13.440;2023-03-01T00:58:16;-2.10;35.70
13198;DHT22;6664;52.514;13.440;2023-03-01T01:01:07;-2.10;36.00
13198;DHT22;6664;52.514;13.440;2023-03-01T01:04:04;-2.00;36.20
13198;DHT22;6664;52.514;13.440;2023-03-01T01:06:50;-2.00;36.00
13198;DHT22;6664;52.514;13.440;2023-03-01T01:09:36;-2.00;36.00
13198;DHT22;6664;52.514;13.440;2023-03-01T01:12:21;-2.10;36.10
13198;DHT22;6664;52.514;13.440;2023-03-01T01:15:07;-2.10;36.70
13198;DHT22;6664;52.514;13.440;2023-03-01T01:17:53;-2.10;36.50
13198;DHT22;6664;52.514;13.440;2023-03-01T01:20:38;-2.10;36.50
13198;DHT22;6664;52.514;13.440;2023-03-01T01:23:24;-2.10;36.90
13198;DHT22;6664;52.514;13.440;2023-03-01T01:26:30;-2.10;36.90
13198;DHT22;6664;52.514;13.440;2023-03-01T01:29:18;-2.10;37.50
13198;DHT22;6664;52.514;13.440;2023-03-01T01:32:03;-1.70;37.40
13198;DHT22;6664;52.514;13.440;2023-03-01T01:34:52;-1.50;36.00
13198;DHT22;6664;52.514;13.440;2023-03-01T01:37:37;-1.40;35.40
13198;DHT22;6664;52.514;13.440;2023-03-01T01:40:26;-1.20;35.70
13198;DHT22;6664;52.514;13.440;2023-03-01T01:55:08;-2.00;35.80
13198;DHT22;6664;52.514;13.440;2023-03-01T01:57:59;-2.00;36.40
13198;DHT22;6664;52.514;13.440;2023-03-01T02:00:47;-1.90;36.20
13198;DHT22;6664;52.514;13.440;2023-03-01T02:03:35;-1.80;35.60
13198;DHT22;6664;52.514;13.440;2023-03-01T02:06:49;-2.00;35.30
13198;DHT22;6664;52.514;13.440;2023-03-01T02:09:33;-1.90;36.00
13198;DHT22;6664;52.514;13.440;2023-03-01T02:12:24;-1.90;36.20
13198;DHT22;6664;52.514;13.440;2023-03-01T02:15:12;-1.90;36.30
13198;DHT22;6664;52.514;13.440;2023-03-01T02:17:57;-2.00;36.10
13198;DHT22;6664;52.514;13.440;2023-03-01T02:23:48;-2.20;36.50
13198;DHT22;6664;52.514;13.440;2023-03-01T02:26:41;-2.10;37.30
13198;DHT22;6664;52.514;13.440;2023-03-01T02:29:28;-2.30;37.00
13198;DHT22;6664;52.514;13.440;2023-03-01T02:32:14;-2.40;37.60
13198;DHT22;6664;52.514;13.440;2023-03-01T02:35:01;-2.30;37.90
13198;DHT22;6664;52.514;13.440;2023-03-01T02:37:48;-2.30;38.20
13198;DHT22;6664;52.514;13.440;2023-03-01T02:40:39;-2.40;37.90
13198;DHT22;6664;52.514;13.440;2023-03-01T02:43:29;-2.30;38.90
13198;DHT22;6664;52.514;13.440;2023-03-01T02:46:20;-2.40;38.90
13198;DHT22;6664;52.514;13.440;2023-03-01T02:55:27;-2.30;39.40
13198;DHT22;6664;52.514;13.440;2023-03-01T02:58:13;-2.30;39.50
13198;DHT22;6664;52.514;13.440;2023-03-01T03:00:59;-2.30;39.70
13198;DHT22;6664;52.514;13.440;2023-03-01T03:03:46;-2.40;39.70
13198;DHT22;6664;52.514;13.440;2023-03-01T03:06:32;-2.50;39.90
13198;DHT22;6664;52.514;13.440;2023-03-01T03:09:19;-2.50;40.50
13198;DHT22;6664;52.514;13.440;2023-03-01T03:12:07;-2.60;40.50
13198;DHT22;6664;52.514;13.440;2023-03-01T03:14:57;-2.60;41.00
13198;DHT22;6664;52.514;13.440;2023-03-01T03:17:42;-2.70;41.50
13198;DHT22;6664;52.514;13.440;2023-03-01T03:20:31;-2.70;41.90
13198;DHT22;6664;52.514;13.440;2023-03-01T03:23:19;-2.70;42.10
13198;DHT22;6664;52.514;13.440;2023-03-01T03:26:06;-2.70;42.10
13198;DHT22;6664;52.514;13.440;2023-03-01T03:28:51;-2.80;42.10
13198;DHT22;6664;52.514;13.440;2023-03-01T03:31:37;-2.80;42.70
13198;DHT22;6664;52.514;13.440;2023-03-01T03:34:22;-2.80;43.20
13198;DHT22;6664;52.514;13.440;2023-03-01T03:37:08;-2.80;43.40
13198;DHT22;6664;52.514;13.440;2023-03-01T03:40:21;-2.90;43.40
13198;DHT22;6664;52.514;13.440;2023-03-01T03:43:15;-2.80;44.20
13198;DHT22;6664;52.514;13.440;2023-03-01T03:46:03;-2.80;44.30
13198;DHT22;6664;52.514;13.440;2023-03-01T03:48:51;-2.80;44.70
13198;DHT22;6664;52.514;13.440;2023-03-01T03:51:36;-2.90;45.00
13198;DHT22;6664;52.514;13.440;2023-03-01T03:54:29;-2.90;45.20
13198;DHT22;6664;52.514;13.440;2023-03-01T03:57:15;-3.00;45.30
13198;DHT22;6664;52.514;13.440;2023-03-01T04:00:08;-2.90;45.90
13198;DHT22;6664;52.514;13.440;2023-03-01T04:03:01;-3.00;45.90
13198;DHT22;6664;52.514;13.440;2023-03-01T04:05:48;-3.00;46.70
13198;DHT22;6664;52.514;13.440;2023-03-01T04:08:37;-3.00;47.00
13198;DHT22;6664;52.514;13.440;2023-03-01T04:11:23;-3.00;47.00
13198;DHT22;6664;52.514;13.440;2023-03-01T04:14:11;-3.00;47.30
13198;DHT22;6664;52.514;13.440;2023-03-01T04:17:00;-3.10;47.30
13198;DHT22;6664;52.514;13.440;2023-03-01T04:19:46;-3.00;48.20
13198;DHT22;6664;52.514;13.440;2023-03-01T04:22:33;-3.00;48.40
13198;DHT22;6664;52.514;13.440;2023-03-01T04:25:19;-3.10;48.40
13198;DHT22;6664;52.514;13.440;2023-03-01T04:28:05;-3.00;49.00
13198;DHT22;6664;52.514;13.440;2023-03-01T04:30:52;-3.00;49.40
13198;DHT22;6664;52.514;13.440;2023-03-01T04:33:42;-3.00;49.80
13198;DHT22;6664;52.514;13.440;2023-03-01T04:36:29;-3.10;49.50
13198;DHT22;6664;52.514;13.440;2023-03-01T04:39:18;-3.10;49.90
13198;DHT22;6664;52.514;13.440;2023-03-01T04:42:03;-3.10;50.60
13198;DHT22;6664;52.514;13.440;2023-03-01T04:44:49;-3.10;50.40
13198;DHT22;6664;52.514;13.440;2023-03-01T04:47:36;-3.20;50.80
13198;DHT22;6664;52.514;13.440;2023-03-01T04:50:25;-3.10;51.90
13198;DHT22;6664;52.514;13.440;2023-03-01T04:53:11;-3.10;51.70
13198;DHT22;6664;52.514;13.440;2023-03-01T04:55:56;-3.20;51.60
13198;DHT22;6664;52.514;13.440;2023-03-01T04:58:42;-3.20;51.80
13198;DHT22;6664;52.514;13.440;2023-03-01T05:01:27;-3.20;52.10
13198;DHT22;6664;52.514;13.440;2023-03-01T05:04:13;-3.20;52.70
13198;DHT22;6664;52.514;13.440;2023-03-01T05:06:59;-3.20;53.00
13198;DHT22;6664;52.514;13.440;2023-03-01T05:09:47;-3.20;53.40
13198;DHT22;6664;52.514;13.440;2023-03-01T05:12:39;-3.20;53.90
13198;DHT22;6664;52.514;13.440;2023-03-01T05:15:28;-3.10;54.10
13198;DHT22;6664;52.514;13.440;2023-03-01T05:18:15;-3.20;53.90
13198;DHT22;6664;52.514;13.440;2023-03-01T05:21:05;-3.20;54.40
13198;DHT22;6664;52.514;13.440;2023-03-01T05:23:51;-3.30;54.30
13198;DHT22;6664;52.514;13.440;2023-03-01T05:26:37;-3.30;54.90
13198;DHT22;6664;52.514;13.440;2023-03-01T05:29:30;-3.30;55.30
13198;DHT22;6664;52.514;13.440;2023-03-01T05:32:16;-3.20;56.60
13198;DHT22;6664;52.514;13.440;2023-03-01T05:35:01;-3.30;55.70
13198;DHT22;6664;52.514;13.440;2023-03-01T05:37:48;-3.30;56.10
13198;DHT22;6664;52.514;13.440;2023-03-01T05:40:34;-3.30;56.60
13198;DHT22;6664;52.514;13.440;2023-03-01T05:43:20;-3.30;56.50
13198;DHT22;6664;52.514;13.440;2023-03-01T05:46:05;-3.30;56.60
13198;DHT22;6664;52.514;13.440;2023-03-01T05:48:51;-3.20;56.70
13198;DHT22;6664;52.514;13.440;2023-03-01T05:51:39;-3.20;56.90
13198;DHT22;6664;52.514;13.440;2023-03-01T05:54:26;-3.20;56.90
13198;DHT22;6664;52.514;13.440;2023-03-01T05:57:11;-3.20;57.20
13198;DHT22;6664;52.514;13.440;2023-03-01T05:59:57;-3.20;57.20
13198;DHT22;6664;52.514;13.440;2023-03-01T06:02:43;-3.10;57.80
13198;DHT22;6664;52.514;13.440;2023-03-01T06:05:29;-3.10;57.50
13198;DHT22;6664;52.514;13.440;2023-03-01T06:08:17;-3.20;57.30
13198;DHT22;6664;52.514;13.440;2023-03-01T06:11:05;-3.10;58.00
13198;DHT22;6664;52.514;13.440;2023-03-01T06:13:52;-3.10;58.20
13198;DHT22;6664;52.514;13.440;2023-03-01T06:16:38;-3.10;57.90
13198;DHT22;6664;52.514;13.440;2023-03-01T06:19:26;-3.00;58.30
13198;DHT22;6664;52.514;13.440;2023-03-01T06:22:11;-3.10;58.10
13198;DHT22;6664;52.514;13.440;2023-03-01T06:24:57;-3.00;58.50
13198;DHT22;6664;52.514;13.440;2023-03-01T06:27:43;-3.00;58.20
13198;DHT22;6664;52.514;13.440;2023-03-01T06:30:28;-3.00;58.20
13198;DHT22;6664;52.514;13.440;2023-03-01T06:33:15;-3.00;58.80
13198;DHT22;6664;52.514;13.440;2023-03-01T06:36:00;-2.90;58.90
13198;DHT22;6664;52.514;13.440;2023-03-01T06:38:46;-2.80;59.30
13198;DHT22;6664;52.514;13.440;2023-03-01T06:41:32;-2.80;59.00
13198;DHT22;6664;52.514;13.440;2023-03-01T06:44:18;-2.60;59.50
13198;DHT22;6664;52.514;13.440;2023-03-01T06:47:06;-2.60;59.10
13198;DHT22;6664;52.514;13.440;2023-03-01T06:49:51;-2.50;58.90
13198;DHT22;6664;52.514;13.440;2023-03-01T06:52:39;-2.50;58.80
13198;DHT22;6664;52.514;13.440;2023-03-01T06:55:27;-2.40;59.00
13198;DHT22;6664;52.514;13.440;2023-03-01T06:58:12;-2.40;58.60
13198;DHT22;6664;52.514;13.440;2023-03-01T07:00:58;-2.30;58.40
13198;DHT22;6664;52.514;13.440;2023-03-01T07:03:43;-2.20;58.60
13198;DHT22;6664;52.514;13.440;2023-03-01T07:06:29;-2.10;58.50
13198;DHT22;6664;52.514;13.440;2023-03-01T07:09:23;-1.90;58.70
13198;DHT22;6664;52.514;13.440;2023-03-01T07:12:13;-1.80;58.50
13198;DHT22;6664;52.514;13.440;2023-03-01T07:15:01;-1.80;57.80
13198;DHT22;6664;52.514;13.440;2023-03-01T07:17:46;-1.70;57.90
13198;DHT22;6664;52.514;13.440;2023-03-01T07:20:35;-1.70;57.60
13198;DHT22;6664;52.514;13.440;2023-03-01T07:23:20;-1.60;57.50
13198;DHT22;6664;52.514;13.440;2023-03-01T07:26:06;-1.60;57.20
13198;DHT22;6664;52.514;13.440;2023-03-01T07:28:55;-1.40;57.40
13198;DHT22;6664;52.514;13.440;2023-03-01T07:31:46;-1.30;56.90
13198;DHT22;6664;52.514;13.440;2023-03-01T07:34:31;-1.20;56.30
13198;DHT22;6664;52.514;13.440;2023-03-01T07:37:17;-1.10;56.30
13198;DHT22;6664;52.514;13.440;2023-03-01T07:40:03;-1.00;55.70
13198;DHT22;6664;52.514;13.440;2023-03-01T07:42:51;-0.90;55.10
13198;DHT22;6664;52.514;13.440;2023-03-01T07:45:41;-0.90;54.20
13198;DHT22;6664;52.514;13.440;2023-03-01T07:48:28;-0.80;53.60
13198;DHT22;6664;52.514;13.440;2023-03-01T07:51:14;-0.70;51.90
13198;DHT22;6664;52.514;13.440;2023-03-01T07:54:00;-0.60;50.20
13198;DHT22;6664;52.514;13.440;2023-03-01T07:56:50;-0.50;49.00
13198;DHT22;6664;52.514;13.440;2023-03-01T07:59:36;-0.40;47.70
13198;DHT22;6664;52.514;13.440;2023-03-01T08:02:22;-0.30;46.10
13198;DHT22;6664;52.514;13.440;2023-03-01T08:05:09;-0.20;45.30
13198;DHT22;6664;52.514;13.440;2023-03-01T08:07:55;-0.20;44.10
13198;DHT22;6664;52.514;13.440;2023-03-01T08:10:44;-0.20;43.10
13198;DHT22;6664;52.514;13.440;2023-03-01T08:13:30;-0.10;42.40
13198;DHT22;6664;52.514;13.440;2023-03-01T08:16:16;-0.10;42.20
13198;DHT22;6664;52.514;13.440;2023-03-01T08:19:12;0.00;41.80
13198;DHT22;6664;52.514;13.440;2023-03-01T08:21:58;0.20;40.70
13198;DHT22;6664;52.514;13.440;2023-03-01T08:24:44;0.30;39.60
13198;DHT22;6664;52.514;13.440;2023-03-01T08:27:30;0.40;39.10
13198;DHT22;6664;52.514;13.440;2023-03-01T08:30:15;0.60;37.00
13198;DHT22;6664;52.514;13.440;2023-03-01T08:33:02;0.70;36.30
13198;DHT22;6664;52.514;13.440;2023-03-01T08:35:48;0.70;35.20
13198;DHT22;6664;52.514;13.440;2023-03-01T08:38:35;0.70;35.30
13198;DHT22;6664;52.514;13.440;2023-03-01T08:41:20;0.70;34.30
13198;DHT22;6664;52.514;13.440;2023-03-01T08:44:06;0.90;33.40
13198;DHT22;6664;52.514;13.440;2023-03-01T08:46:54;1.20;30.40
13198;DHT22;6664;52.514;13.440;2023-03-01T08:49:43;1.40;29.00
13198;DHT22;6664;52.514;13.440;2023-03-01T08:52:29;1.50;28.50
13198;DHT22;6664;52.514;13.440;2023-03-01T08:55:15;1.50;27.40
13198;DHT22;6664;52.514;13.440;2023-03-01T08:58:02;1.60;27.20
13198;DHT22;6664;52.514;13.440;2023-03-01T09:00:47;1.50;26.80
13198;DHT22;6664;52.514;13.440;2023-03-01T09:03:33;1.60;26.00
13198;DHT22;6664;52.514;13.440;2023-03-01T09:06:21;1.60;26.00
13198;DHT22;6664;52.514;13.440;2023-03-01T09:09:13;1.90;25.30
13198;DHT22;6664;52.514;13.440;2023-03-01T09:12:01;2.10;23.50
13198;DHT22;6664;52.514;13.440;2023-03-01T09:14:46;2.00;23.00
13198;DHT22;6664;52.514;13.440;2023-03-01T09:17:32;2.10;22.50
13198;DHT22;6664;52.514;13.440;2023-03-01T09:20:18;2.30;22.00
13198;DHT22;6664;52.514;13.440;2023-03-01T09:23:03;2.20;21.30
13198;DHT22;6664;52.514;13.440;2023-03-01T09:25:52;2.30;21.40
13198;DHT22;6664;52.514;13.440;2023-03-01T09:28:39;2.20;21.20
13198;DHT22;6664;52.514;13.440;2023-03-01T09:31:27;2.20;21.20
13198;DHT22;6664;52.514;13.440;2023-03-01T09:34:12;2.30;21.10
13198;DHT22;6664;52.514;13.440;2023-03-01T09:37:01;2.30;20.50
13198;DHT22;6664;52.514;13.440;2023-03-01T09:39:49;2.20;20.60
13198;DHT22;6664;52.514;13.440;2023-03-01T09:42:36;2.30;20.30
13198;DHT22;6664;52.514;13.440;2023-03-01T09:45:35;2.60;19.60
13198;DHT22;6664;52.514;13.440;2023-03-01T09:48:26;2.70;18.40
13198;DHT22;6664;52.514;13.440;2023-03-01T09:51:23;2.80;18.10
13198;DHT22;6664;52.514;13.440;2023-03-01T09:54:13;2.80;18.10
13198;DHT22;6664;52.514;13.440;2023-03-01T10:00:11;3.10;17.40
13198;DHT22;6664;52.514;13.440;2023-03-01T10:03:16;3.00;16.90
13198;DHT22;6664;52.514;13.440;2023-03-01T10:06:14;3.20;16.50
13198;DHT22;6664;52.514;13.440;2023-03-01T10:09:18;3.40;16.10
13198;DHT22;6664;52.514;13.440;2023-03-01T10:12:12;3.60;15.10
13198;DHT22;6664;52.514;13.440;2023-03-01T10:15:06;3.60;15.10
13198;DHT22;6664;52.514;13.440;2023-03-01T10:18:04;3.70;14.60
13198;DHT22;6664;52.514;13.440;2023-03-01T10:20:56;3.80;14.40
13198;DHT22;6664;52.514;13.440;2023-03-01T10:23:45;3.80;14.00
13198;DHT22;6664;52.514;13.440;2023-03-01T10:26:56;3.80;14.00
13198;DHT22;6664;52.514;13.440;2023-03-01T10:30:20;4.00;13.90
13198;DHT22;6664;52.514;13.440;2023-03-01T10:33:18;3.90;13.40
13198;DHT22;6664;52.514;13.440;2023-03-01T10:36:05;3.80;12.80
13198;DHT22;6664;52.514;13.440;2023-03-01T10:38:56;3.80;12.70
13198;DHT22;6664;52.514;13.440;2023-03-01T10:41:57;3.80;12.70
13198;DHT22;6664;52.514;13.440;2023-03-01T10:44:46;3.80;12.60
13198;DHT22;6664;52.514;13.440;2023-03-01T10:47:32;3.90;12.60
13198;DHT22;6664;52.514;13.440;2023-03-01T10:50:20;4.00;12.50
13198;DHT22;6664;52.514;13.440;2023-03-01T10:53:27;4.00;12.00
13198;DHT22;6664;52.514;13.440;2023-03-01T10:56:17;4.00;11.70
13198;DHT22;6664;52.514;13.440;2023-03-01T10:59:04;4.00;11.20
13198;DHT22;6664;52.514;13.440;2023-03-01T11:05:01;4.30;10.00
13198;DHT22;6664;52.514;13.440;2023-03-01T11:07:55;4.40;9.40
13198;DHT22;6664;52.514;13.440;2023-03-01T11:10:42;4.40;9.00
13198;DHT22;6664;52.514;13.440;2023-03-01T11:13:29;4.50;8.70
13198;DHT22;6664;52.514;13.440;2023-03-01T11:16:26;4.50;8.60
13198;DHT22;6664;52.514;13.440;2023-03-01T11:24:57;4.80;7.20
13198;DHT22;6664;52.514;13.440;2023-03-01T11:27:54;4.90;6.60
13198;DHT22;6664;52.514;13.440;2023-03-01T11:31:02;4.90;6.50
13198;DHT22;6664;52.514;13.440;2023-03-01T11:34:02;5.00;4.70
13198;DHT22;6664;52.514;13.440;2023-03-01T11:36:54;5.10;4.60
13198;DHT22;6664;52.514;13.440;2023-03-01T11:39:53;5.20;4.60
13198;DHT22;6664;52.514;13.440;2023-03-01T11:52:15;5.60;2.90
13198;DHT22;6664;52.514;13.440;2023-03-01T12:02:07;5.90;1.40
13198;DHT22;6664;52.514;13.440;2023-03-01T12:17:11;6.10;1.00
13198;DHT22;6664;52.514;13.440;2023-03-01T12:20:32;6.20;1.00
13198;DHT22;6664;52.514;13.440;2023-03-01T12:29:26;6.50;1.00
13198;DHT22;6664;52.514;13.440;2023-03-01T12:36:07;6.70;1.00
13198;DHT22;6664;52.514;13.440;2023-03-01T12:42:20;6.70;1.00
13198;DHT22;6664;52.514;13.440;2023-03-01T12:48:39;6.80;1.00
13198;DHT22;6664;52.514;13.440;2023-03-01T12:51:30;6.70;1.00
13198;DHT22;6664;52.514;13.440;2023-03-01T12:54:27;6.80;1.00
13198;DHT22;6664;52.514;13.440;2023-03-01T12:57:26;7.00;1.00
13198;DHT22;6664;52.514;13.440;2023-03-01T13:00:44;7.30;1.00
13198;DHT22;6664;52.514;13.440;2023-03-01T13:13:13;21.70;1.00
13198;DHT22;6664;52.514;13.440;2023-03-01T13:15:57;21.00;1.00
13198;DHT22;6664;52.514;13.440;2023-03-01T13:19:15;23.40;1.00
13198;DHT22;6664;52.514;13.440;2023-03-01T13:22:31;25.80;1.00
13198;DHT22;6664;52.514;13.440;2023-03-01T13:25:19;28.00;1.00
13198;DHT22;6664;52.514;13.440;2023-03-01T13:34:44;30.20;1.00
13198;DHT22;6664;52.514;13.440;2023-03-01T13:37:36;31.50;1.00
13198;DHT22;6664;52.514;13.440;2023-03-01T13:43:47;26.20;1.00
13198;DHT22;6664;52.514;13.440;2023-03-01T13:46:33;27.20;1.00
13198;DHT22;6664;52.514;13.440;2023-03-01T13:49:22;28.50;1.00
13198;DHT22;6664;52.514;13.440;2023-03-01T13:52:46;27.80;1.00
13198;DHT22;6664;52.514;13.440;2023-03-01T13:55:41;26.70;1.00
13198;DHT22;6664;52.514;13.440;2023-03-01T13:58:30;24.90;1.00
13198;DHT22;6664;52.514;13.440;2023-03-01T14:04:29;25.60;1.00
13198;DHT22;6664;52.514;13.440;2023-03-01T14:07:21;26.40;1.00
13198;DHT22;6664;52.514;13.440;2023-03-01T14:10:12;27.20;1.00
13198;DHT22;6664;52.514;13.440;2023-03-01T14:13:19;27.00;1.00
13198;DHT22;6664;52.514;13.440;2023-03-01T14:16:16;25.50;1.00
13198;DHT22;6664;52.514;13.440;2023-03-01T14:19:17;26.10;1.00
13198;DHT22;6664;52.514;13.440;2023-03-01T14:22:21;24.60;1.00
13198;DHT22;6664;52.514;13.440;2023-03-01T14:25:20;24.80;1.00
13198;DHT22;6664;52.514;13.440;2023-03-01T14:28:27;22.60;1.00
13198;DHT22;6664;52.514;13.440;2023-03-01T14:31:37;18.80;1.00
13198;DHT22;6664;52.514;13.440;2023-03-01T14:34:43;15.90;1.00
13198;DHT22;6664;52.514;13.440;2023-03-01T14:37:33;14.10;1.00
13198;DHT22;6664;52.514;13.440;2023-03-01T14:43:19;11.80;1.00
13198;DHT22;6664;52.514;13.440;2023-03-01T14:46:23;11.00;1.00
13198;DHT22;6664;52.514;13.440;2023-03-01T14:49:16;10.20;1.00
13198;DHT22;6664;52.514;13.440;2023-03-01T14:52:08;9.70;1.00
13198;DHT22;6664;52.514;13.440;2023-03-01T14:55:06;9.20;1.00
13198;DHT22;6664;52.514;13.440;2023-03-01T14:57:53;8.90;1.00
13198;DHT22;6664;52.514;13.440;2023-03-01T15:00:52;8.60;1.00
13198;DHT22;6664;52.514;13.440;2023-03-01T15:03:46;8.30;1.00
13198;DHT22;6664;52.514;13.440;2023-03-01T15:06:32;8.20;1.00
13198;DHT22;6664;52.514;13.440;2023-03-01T15:09:22;8.00;1.00
13198;DHT22;6664;52.514;13.440;2023-03-01T15:15:51;7.70;1.00
13198;DHT22;6664;52.514;13.440;2023-03-01T15:19:05;7.60;1.00
13198;DHT22;6664;52.514;13.440;2023-03-01T15:21:52;7.40;1.00
13198;DHT22;6664;52.514;13.440;2023-03-01T15:24:38;7.30;1.00
13198;DHT22;6664;52.514;13.440;2023-03-01T15:27:25;7.30;1.00
13198;DHT22;6664;52.514;13.440;2023-03-01T15:30:26;7.20;1.00
13198;DHT22;6664;52.514;13.440;2023-03-01T15:33:30;7.10;1.00
13198;DHT22;6664;52.514;13.440;2023-03-01T15:36:40;7.00;1.00
13198;DHT22;6664;52.514;13.440;2023-03-01T15:39:50;6.90;1.00
13198;DHT22;6664;52.514;13.440;2023-03-01T15:42:42;6.80;1.00
13198;DHT22;6664;52.514;13.440;2023-03-01T15:45:30;6.70;1.00
13198;DHT22;6664;52.514;13.440;2023-03-01T15:48:18;6.80;1.00
13198;DHT22;6664;52.514;13.440;2023-03-01T15:51:09;6.60;1.00
13198;DHT22;6664;52.514;13.440;2023-03-01T15:53:59;6.70;1.00
13198;DHT22;6664;52.514;13.440;2023-03-01T15:56:45;6.50;1.00
13198;DHT22;6664;52.514;13.440;2023-03-01T15:59:33;6.50;1.00
13198;DHT22;6664;52.514;13.440;2023-03-01T16:02:18;6.50;1.00
13198;DHT22;6664;52.514;13.440;2023-03-01T16:05:17;6.40;1.00
13198;DHT22;6664;52.514;13.440;2023-03-01T16:08:06;6.40;1.00
13198;DHT22;6664;52.514;13.440;2023-03-01T16:10:52;6.30;1.00
13198;DHT22;6664;52.514;13.440;2023-03-01T16:13:42;6.30;1.00
13198;DHT22;6664;52.514;13.440;2023-03-01T16:16:30;6.20;1.00
13198;DHT22;6664;52.514;13.440;2023-03-01T16:19:17;6.10;1.00
13198;DHT22;6664;52.514;13.440;2023-03-01T16:22:02;5.90;1.00
13198;DHT22;6664;52.514;13.440;2023-03-01T16:24:48;5.70;1.00
13198;DHT22;6664;52.514;13.440;2023-03-01T16:27:36;5.60;1.00
13198;DHT22;6664;52.514;13.440;2023-03-01T16:30:22;5.50;1.50
13198;DHT22;6664;52.514;13.440;2023-03-01T16:33:08;5.30;1.60
13198;DHT22;6664;52.514;13.440;2023-03-01T16:36:14;5.20;1.60
13198;DHT22;6664;52.514;13.440;2023-03-01T16:39:03;5.20;2.30
13198;DHT22;6664;52.514;13.440;2023-03-01T16:41:49;5.20;2.50
13198;DHT22;6664;52.514;13.440;2023-03-01T16:44:34;5.00;3.30
13198;DHT22;6664;52.514;13.440;2023-03-01T16:47:22;4.90;3.80
13198;DHT22;6664;52.514;13.440;2023-03-01T16:50:10;4.70;4.30
13198;DHT22;6664;52.514;13.440;2023-03-01T16:52:58;4.60;4.50
13198;DHT22;6664;52.514;13.440;2023-03-01T16:55:46;4.60;5.20
13198;DHT22;6664;52.514;13.440;2023-03-01T16:58:38;4.60;5.60
13198;DHT22;6664;52.514;13.440;2023-03-01T17:01:26;4.40;5.70
13198;DHT22;6664;52.514;13.440;2023-03-01T17:04:12;4.40;6.00
13198;DHT22;6664;52.514;13.440;2023-03-01T17:06:57;4.30;6.40
13198;DHT22;6664;52.514;13.440;2023-03-01T17:09:43;4.30;6.90
13198;DHT22;6664;52.514;13.440;2023-03-01T17:12:29;4.30;7.10
13198;DHT22;6664;52.514;13.440;2023-03-01T17:15:14;4.20;7.40
13198;DHT22;6664;52.514;13.440;2023-03-01T17:18:00;4.10;7.60
13198;DHT22;6664;52.514;13.440;2023-03-01T17:20:45;4.00;7.90
13198;DHT22;6664;52.514;13.440;2023-03-01T17:23:34;4.00;8.20
13198;DHT22;6664;52.514;13.440;2023-03-01T17:26:21;4.00;8.40
13198;DHT22;6664;52.514;13.440;2023-03-01T17:29:06;3.90;8.60
13198;DHT22;6664;52.514;13.440;2023-03-01T17:31:54;3.80;9.00
13198;DHT22;6664;52.514;13.440;2023-03-01T17:34:41;3.70;10.10
13198;DHT22;6664;52.514;13.440;2023-03-01T17:37:32;3.70;9.80
13198;DHT22;6664;52.514;13.440;2023-03-01T17:40:18;3.50;9.80
13198;DHT22;6664;52.514;13.440;2023-03-01T17:43:04;3.50;10.50
13198;DHT22;6664;52.514;13.440;2023-03-01T17:45:50;3.50;10.90
13198;DHT22;6664;52.514;13.440;2023-03-01T17:48:37;3.40;11.20
13198;DHT22;6664;52.514;13.440;2023-03-01T17:51:24;3.40;11.70
13198;DHT22;6664;52.514;13.440;2023-03-01T17:54:12;3.30;11.90
13198;DHT22;6664;52.514;13.440;2023-03-01T17:56:58;3.30;12.30
13198;DHT22;6664;52.514;13.440;2023-03-01T17:59:44;3.20;12.40
13198;DHT22;6664;52.514;13.440;2023-03-01T18:02:32;3.10;12.60
13198;DHT22;6664;52.514;13.440;2023-03-01T18:05:18;3.10;13.10
13198;DHT22;6664;52.514;13.440;2023-03-01T18:08:07;3.10;13.20
13198;DHT22;6664;52.514;13.440;2023-03-01T18:10:59;3.00;13.60
13198;DHT22;6664;52.514;13.440;2023-03-01T18:13:45;3.00;14.00
13198;DHT22;6664;52.514;13.440;2023-03-01T18:16:32;2.90;13.80
13198;DHT22;6664;52.514;13.440;2023-03-01T18:19:18;2.80;14.20
13198;DHT22;6664;52.514;13.440;2023-03-01T18:22:06;2.80;14.30
13198;DHT22;6664;52.514;13.440;2023-03-01T18:24:53;2.80;14.50
13198;DHT22;6664;52.514;13.440;2023-03-01T18:27:41;2.90;14.90
13198;DHT22;6664;52.514;13.440;2023-03-01T18:30:27;2.80;15.10
13198;DHT22;6664;52.514;13.440;2023-03-01T18:33:12;2.80;15.70
13198;DHT22;6664;52.514;13.440;2023-03-01T18:35:58;2.70;16.00
13198;DHT22;6664;52.514;13.440;2023-03-01T18:38:45;2.80;16.20
13198;DHT22;6664;52.514;13.440;2023-03-01T18:41:31;2.70;16.50
13198;DHT22;6664;52.514;13.440;2023-03-01T18:44:17;2.70;16.70
13198;DHT22;6664;52.514;13.440;2023-03-01T18:47:05;2.70;17.20
13198;DHT22;6664;52.514;13.440;2023-03-01T18:49:50;2.50;17.00
13198;DHT22;6664;52.514;13.440;2023-03-01T18:52:38;2.50;17.70
13198;DHT22;6664;52.514;13.440;2023-03-01T18:55:24;2.50;17.90
13198;DHT22;6664;52.514;13.440;2023-03-01T18:58:10;2.50;17.90
13198;DHT22;6664;52.514;13.440;2023-03-01T19:00:55;2.50;17.90
13198;DHT22;6664;52.514;13.440;2023-03-01T19:03:41;2.40;17.90
13198;DHT22;6664;52.514;13.440;2023-03-01T19:06:29;2.30;18.20
13198;DHT22;6664;52.514;13.440;2023-03-01T19:09:20;2.30;18.50
13198;DHT22;6664;52.514;13.440;2023-03-01T19:12:06;2.20;18.70
13198;DHT22;6664;52.514;13.440;2023-03-01T19:14:51;2.20;19.10
13198;DHT22;6664;52.514;13.440;2023-03-01T19:17:38;2.00;19.20
13198;DHT22;6664;52.514;13.440;2023-03-01T19:20:24;2.10;19.80
13198;DHT22;6664;52.514;13.440;2023-03-01T19:23:09;2.00;20.00
13198;DHT22;6664;52.514;13.440;2023-03-01T19:25:58;1.90;20.40
13198;DHT22;6664;52.514;13.440;2023-03-01T19:28:45;1.90;20.50
13198;DHT22;6664;52.514;13.440;2023-03-01T19:31:30;1.90;20.60
13198;DHT22;6664;52.514;13.440;2023-03-01T19:34:16;1.80;20.70
13198;DHT22;6664;52.514;13.440;2023-03-01T19:37:02;1.80;21.00
13198;DHT22;6664;52.514;13.440;2023-03-01T19:39:48;1.80;21.00
13198;DHT22;6664;52.514;13.440;2023-03-01T19:42:33;1.90;21.60
13198;DHT22;6664;52.514;13.440;2023-03-01T19:45:19;1.80;21.60
13198;DHT22;6664;52.514;13.440;2023-03-01T19:48:17;1.70;21.80
13198;DHT22;6664;52.514;13.440;2023-03-01T19:51:03;1.80;21.80
13198;DHT22;6664;52.514;13.440;2023-03-01T19:53:48;1.80;21.80